Håll muspekaren över respektive flygplats för att se aktuella METAR och TAF.
Informationen kommer från Aviation Weather Center och vi tar inget ansvar för ev fel.

Redigera flygplats

 

Masterfil

ändringar
METAR:
TAF:

I=ILS ((min200ft)/550m), L=LOC(min250ft/800m), V=VOR(min300ft/800m), N=NDB(min300ft/800m), G=GPS, C=CIRC(min500ft/1600m),
Takeoff 500m, rwy lgt 250m, ctr lgt 200m, multi RVR 150m   RWY


SWEDEN

AirportMETARTAF
Arvidsjaur
I12-550/200
I30-550/200
ESNX 270350Z 29005KT CAVOK 07/06 Q0998 TAF ESNX 270330Z 2704/2712 29004KT CAVOK PROB40 2704/2706 2000 BR BECMG 2708/2710 36010KT
Borlänge
I32-550/200
R14-800/250
ESSD 270350Z AUTO 25004KT 9999 BKN030/// OVC037/// 09/08 Q0996
Bromma
I12-550/200
I30-750/200
ESSB 270350Z AUTO 26007KT 9999 -DZ SCT009/// OVC014/// 10/09 Q0997 TAF ESSB 270230Z 2703/2712 25008KT 9999 SCT006 BKN015 TEMPO 2703/2708 SHRA BKN006 BKN030CB
Gällivare
I30-550/223
R12-1300/250
ESNG 270350Z 27004KT CAVOK 09/M00 Q0999 TAF ESNG 270230Z 2703/2712 36008KT CAVOK BECMG 2707/2709 OVC012 TEMPO 2707/2712 4000 RA
Hagfors
I18-550/200
R36-1500/360
ESOH 270350Z AUTO 28003KT 250V320 9999 OVC011/// 07/06 Q0998
Halmstad
I19-550/200
R01-1100/330
ESMT 270350Z AUTO 28018KT 9999 FEW023/// SCT036/// 10/06 Q1004 TAF ESMT 261420Z 2615/2619 27015KT 9999 SCT030 TEMPO 2615/2619 27020G32KT SCT030CB
Hemavan
I33-1500/609
L15-5000/1567
ESUT 270350Z AUTO 29003KT 9999 DZ BKN033/// OVC049/// 03/03 Q1000
Jönköping
I19-550/200
I01-550/200
ESGJ 270350Z AUTO 23007KT 9999 NCD 06/05 Q1001 TAF ESGJ 270330Z 2704/2712 25009KT 9999 SCT025 TEMPO 2704/2709 2500 SHRA BKN008 BKN015CB
Kalmar
I16-550/200
R34-1400/300
ESMQ 270350Z AUTO 23010KT 9999 // NCD ///// Q1003 TAF ESMQ 261430Z 2615/2618 27015G28KT 9999 SCT035 TEMPO 2615/2616 SCT040CB
Karlsborg
06/24
ESIA 270350Z AUTO 24011KT 9999 NCD 08/06 Q1000
Karlstad
I03-550/200
I21-550/200
ESOK 270350Z AUTO 26005KT 220V290 9999 NCD 06/04 Q0999
Kiruna
I21-550/200
R03-900/341
ESNQ 270350Z AUTO 01007KT 9999 OVC098/// 09/01 Q1001 TAF ESNQ 270230Z 2703/2712 VRB02KT CAVOK BECMG 2704/2706 26010KT TEMPO 2705/2712 4000 RA OVC009
Kramfors
I35-550/200
L17-1500/605
ESNK 270350Z 33002KT CAVOK 06/05 Q0998 TAF ESNK 261430Z 2615/2618 18012KT CAVOK TEMPO 2615/2618 SCT040CB
Kristianstad
I19-550/200
R01-1300/255
ESMK 270350Z AUTO 23004KT 9999 DZ BKN034/// 08/08 Q1004 RERA
Landvetter
I03-550/200
I21-550/200
ESGG 270350Z 24007KT 220V280 9999 FEW007 SCT009 BKN012 08/07 Q1001 TAF ESGG 270230Z 2703/2803 26013KT 9999 SCT012 BKN015 TEMPO 2703/2706 SHRA BKN009 BKN020CB BECMG 2704/2706 28015G25KT TEMPO 2722/2801 SHRA BKN007 BKN020CB
Linköping ESCF 270350Z AUTO 24010KT 9999 NCD 08/06 Q1000
Linköping
I11-550/200
I29-750/200
ESSL 270350Z 25010KT 220V280 CAVOK 08/05 Q1000 TAF ESSL 270230Z 2703/2705 25010KT CAVOK
Ljungbyhed
29/11
ESTL 270350Z AUTO 25010KT 9999 -RA FEW016/// SCT021/// BKN035/// 09/09 Q1005 RESHUP RESN
Luleå
I14-550/200
I32-550/200
ESPA 270350Z 35006KT CAVOK 09/04 Q0997 TAF ESPA 261730Z 2618/2622 15004KT CAVOK
Lycksele
I14-550/216
L32-1500/551
ESNL 270350Z AUTO VRB02KT 9999 -DZ FEW003/// SCT006/// BKN007/// 09/08 Q0997 REDZ
Mora
I16-550/200
R34-800/254
ESKM 270350Z AUTO 35005KT 9999 SCT017/// BKN032/// OVC061/// 09/08 Q0997
Norrköping
I09-750/200
I27-550/200
ESSP 270350Z AUTO 25013KT 9999 NCD 09/06 Q0999
Pajala
I11-550/200
R29-800/250
ESUP 270350Z AUTO 01009KT 350V050 8000 -RA OVC054/// 08/08 Q0999
Ronneby
I19-550/200
I01-550/200
ESDF 270350Z AUTO 22005KT 9999 BKN062/// OVC120/// 09/08 Q1004 TAF AMD ESDF 261431Z 2615/2619 27015G25KT 9999 SCT040 TEMPO 2615/2617 SCT035TCU
Skavsta
I26-550/200
L08-1400/386
ESKN 270350Z 25011KT CAVOK 08/06 Q0998 TAF ESKN 270230Z 2703/2803 26012KT 9999 SCT040
Skellefteå
I28-550/200
R10-750/250
ESNS 270350Z 28005KT CAVOK 10/08 Q0997 TAF ESNS 270330Z 2704/2712 VRB03KT CAVOK PROB40 2704/2706 0200 FG VV002
Stockholm-Arlanda
I01LR-550/200
I19LR-550/200
L08-1400/392
I26-550/200
ESSA 270350Z 26006KT 9999 BKN004 09/09 Q0996 BECMG BKN004 TAF ESSA 270230Z 2703/2803 26008KT 9999 BKN005 PROB40 2703/2706 2500 -SHRA BR BKN003 BKN020CB BECMG 2708/2710 BKN015 TEMPO 2712/2715 4000 TSRA BKN020CB PROB40 2715/2803 SHRA BKN012 BKN020CB
Sturup
I17-550/200
I35-550/200
ESMS 270350Z 28015KT CAVOK 09/07 Q1006 TAF AMD ESMS 270300Z 2703/2803 27015KT 9999 BKN020 TEMPO 2703/2709 28020G35KT BKN012 TEMPO 2709/2724 28020G35KT 4000 TSRA SCT020CB
Sundsvall
I16-1200/200
I34-550/200
ESNN 270350Z AUTO 33004KT 9999 FEW140/// 05/04 Q0997 TAF ESNN 262030Z 2621/2701 VRB02KT CAVOK PROB40 2622/2701 0300 FG VV002
Sveg
I09-750/200
R27-1300/250
ESND 270350Z AUTO 33005KT 290V030 9999 OVC019/// 07/03 Q0998
Sälen
I15-550/200
I33-550/200
ESKS 270350Z AUTO 33006KT 9999 -RA FEW008/// OVC011/// 05/04 Q0997
Säve
R19-1500/610
01
ESGP 270350Z AUTO 30010KT 9999 -RA FEW018/// BKN031/// OVC047/// 09/07 Q1002 RERA TAF ESGP 270230Z 2703/2712 26017KT 9999 SCT015 BKN030 TEMPO 2703/2706 4000 SHRA BKN015CB BECMG 2703/2707 27015G25KT
Såtenäs
I19-550/200
I01-550/200
ESIB 270350Z AUTO 23009KT 9999 NCD 09/07 Q1000
Torsby
L16-1500/480
L34-1500/416
ESST 270350Z AUTO 29006KT 9999 OVC022/// 07/05 Q0998
Trollhättan
I33-550/200
R15-900/284
ESGT 270350Z AUTO 22005KT 9999 SCT048/// BKN078/// 09/06 Q1001
Umeå
I14-550/200
I32-750/200
ESNU 270350Z 05004KT 020V080 8000 BKN004 09/08 Q0997 TAF ESNU 270230Z 2703/2712 05003KT 9999 SCT004 BKN006 PROB40 2703/2707 2000 BR BKN003 BECMG 2707/2709 BKN040
Vilhelmina
I28-550/200
R10-1000/308
ESNV 270350Z 34004KT 310V020 9999 DZ FEW005 OVC007 08/06 Q0998
Visby
I21-550/200
R03-800/250
ESSV 270350Z 24011KT CAVOK 09/06 Q1001 TAF ESSV 270230Z 2703/2712 24015KT CAVOK
Västerås
I19-550/200
R01-1400/343
ESOW 270350Z AUTO 24008KT 210V280 9999 NCD 09/07 Q0997
Växjö
I19-550/200
R01-800/250
ESMX 270350Z 20006KT 9999 -RA FEW020 BKN038 07/07 Q1003 TAF ESMX 270230Z 2703/2712 22006KT 9999 SCT022 TEMPO 2704/2709 4000 SHRA BKN014CB BECMG 2706/2708 28015G25KT
Ängelholm
I14-550/200
R32-1000/310
ESTA 270350Z AUTO 28024KT 9999 SCT020/// 10/05 Q1004 TAF ESTA 261420Z 2615/2618 27015KT 9999 SCT035 TEMPO 2615/2618 27020G32KT SCT030CB
Örebro
I01-550/200
I19-550/200
ESOE 270350Z 23008KT 9999 SCT008 08/07 Q0998 TAF ESOE 270230Z 2703/2708 23009KT CAVOK
Örnsköldsvik
I12-550/200
L30-800/254
ESNO 270350Z AUTO VRB02KT 9999 SCT055/// OVC072/// 09/09 Q0997
Östersund
I12-550/200
R30-1500/420
ESNZ 270350Z AUTO 29013KT 9999 OVC019/// 06/05 Q0999 TAF ESNZ 261730Z 2618/2621 32008KT 9999 SCT040 TEMPO 2618/2621 4000 TSRA BKN012 BKN030CB

NORDIC

AirportMETARTAF
Alta
I11-1500/389
ENAT 270350Z 07008KT CAVOK 08/02 Q1006 RMK WIND 700FT 06007KT TAF ENAT 270200Z 2703/2712 32006KT 9999 BKN045
Andoya
L14-800/324
R32-750/250
V21-1400/343
ENAN 270350Z 12003KT CAVOK 11/08 Q1002 TAF COR ENAN 2700/2724 VRB05KT CAVOK BECMG 2713/2716 03020KT
Aro
I07-1500/425
L25-1500/1180
ENML 270350Z AUTO 03006KT 9999NDV FEW044/// 06/05 Q1003 TAF AMD ENML 262018Z 2620/2701 VRB06KT 9999 -SHRA FEW018TCU BKN035 TEMPO 2620/2622 29012KT 4000 SHRA BKN014CB
Banak
I34-600/277
L16-750/305
ENNA 270350Z AUTO 33011KT 9999 OVC074/// 08/01 Q1006 RMK WIND 1800FT 06018KT TAF ENNA 2700/2724 18009KT 9999 -RA FEW015 BKN040 BECMG 2700/2703 36015KT TEMPO 2700/2708 RA BKN012 PROB40 TEMPO 2708/2724 BKN008
Bardufors
I28-1300/440
L10-1500/1067
ENDU 270350Z VRB02KT CAVOK 07/02 Q1002 RMK WIND 1100FT 09008KT WIND 2200FT 09009KT TAF ENDU 2700/2724 11005KT 9999 FEW050
Batsfjord
L21-1500/461
R03-1500/630
ENBS 270350Z AUTO 02014KT 9999 OVC006/// 03/02 Q1005
Bergen
I17-550/200
I35-750/210
ENBR 270350Z VRB02KT 9999 -RA FEW008 BKN025 06/05 Q1004 RMK WIND 1200FT 20010KT TAF ENBR 2700/2724 21008KT 9999 -SHRA SCT010 BKN025 TEMPO 2700/2714 SHRA BKN012CB PROB30 TEMPO 2700/2704 4000 TSRA BKN009 SCT015CB BECMG 2710/2712 34015KT TEMPO 2714/2724 34018G28KT
Berlevag
L24-1500/591
R06-1500/634
ENBV 270350Z AUTO 07008KT 9999 BKN011 OVC147 06/03 Q1007
Billund
I09-550/200
I27-550/200
EKBI 270350Z AUTO 25009KT 9999 NCD 08/05 Q1010 TAF EKBI 262301Z 2700/2724 27015KT 9999 BKN030 TEMPO 2706/2724 28018G30KT 4000 TSRA BKN012 SCT020CB
Björneborg
I30-550/200
R12-1100/263
EFPO 270350Z AUTO VRB01KT 9999 SCT039 10/09 Q0996
Bodö
I07-600/268
I25-800/340
ENBO 270350Z 30003KT CAVOK 08/07 Q1002 TAF ENBO 2700/2724 08015KT 9999 FEW050 BECMG 2701/2704 30009KT PROB30 TEMPO 2712/2718 BKN006 TEMPO 2721/2724 BKN014
Bornholm
I11-750/200
I29-550/200
EKRN 270350Z AUTO 24014KT 9999 FEW008/// BKN023/// 12/10 Q1006 TAF EKRN 270216Z 2703/2712 26015KT 9999 FEW030 TEMPO 2703/2706 25018G30KT 4000 SHRA BKN008 BKN015CB TEMPO 2706/2712 25018G35KT 6000 SHRA BKN012 SCT015CB
Bronoysund
R03-1100/316
21
ENBN 270350Z 33003KT 300V360 9000 -DZRA VV008 08/08 Q1002 TAF AMD ENBN 270321Z 2703/2712 22009KT 9999 FEW005 BKN020 TEMPO 2703/2709 4000 -SHRA BKN009
Enontekis
I21-550/200
R03-1000/250
EFET 270350Z AUTO 04010KT 9999 -RA OVC020 05/04 Q1001
Esbjerg
I08-550/200
I26-550/200
EKEB 270350Z AUTO 27009KT 9999 NCD 10/07 Q1010 TAF EKEB 270202Z 2703/2712 28012KT 9999 BKN020 TEMPO 2706/2712 29015G30KT 4000 TSRA BKN012 SCT020CB
Evenes
I17-800/340
R35-1500/779
ENEV 270350Z 00000KT CAVOK 07/06 Q1002 RMK WIND 1400FT 07005KT TAF COR ENEV 2700/2724 VRB03KT 9999 FEW010 SCT060 PROB40 2700/2705 0800 FG VV004 BECMG 2718/2721 36010KT
Faroar
L12-2500/556
I30-1500/435
EKVG 270350Z AUTO 32009KT 9999 NCD 08/05 Q1009 RMK BKN022/// WIND SKEID 30010KT TAF EKVG 261402Z 2615/2621 24012KT 9999 SCT018 BKN025 TEMPO 2615/2621 4500 SHRA BR BKN010CB OVC018 BECMG 2616/2618 31011KT
Floro
L07-1500/413
R25-2500/588
ENFL 270350Z 11006KT 9999 FEW005 FEW015CB BKN030 07/05 Q1003 TAF ENFL 270200Z 2703/2712 12008KT 9999 -SHRA FEW015TCU BKN025 TEMPO 2703/2706 SHRA BKN014CB PROB30 TEMPO 2703/2705 TS
Förde
L07-1500/471
L25-1500/1015
ENBL 270350Z 00000KT 9999 VCFG FEW003 SCT015 BKN020 04/03 Q1003
Halli
I26-750/200
R08-1000/368
EFHA 270350Z AUTO 30004KT CAVOK 08/08 Q0996 TAF EFHA 270232Z 2703/2712 32003KT 0300 FG VV001 BECMG 2703/2705 CAVOK PROB30 2705/2707 BKN009 PROB40 TEMPO 2710/2712 SHRA FEW020CB
Hammerfest
L04-1500/798
L22-1500/929
ENHF 270350Z AUTO 07013KT 9999 BKN098/// 09/01 Q1006 RMK WIND 1254FT 10019KT TAF ENHF 262300Z 2700/2709 06008KT CAVOK
Haugesund
I13-750/200
R31-800/231
ENHD 270350Z AUTO 28015KT 9999 FEW032/// 08/03 Q1004 TAF ENHD 270200Z 2703/2712 26015KT 9999 -SHRA FEW015TCU BKN030 TEMPO 2703/2706 4000 SHRA BKN012CB PROB30 TEMPO 2703/2706 TS BECMG 2705/2707 32015KT
Haukasen
I24-1500/1017
L06-5000/1274
ENSG 270350Z VRB02KT 9999 FEW020 BKN065 03/02 Q1002 RMK WIND 3806FT 24004KT
Helsinki
I04/I15/I22/all 550/200
R33-1000/319
EFHK 270350Z 35003KT 310V040 9999 -RA SCT004 BKN007 09/08 Q0996 TEMPO 4000 BR TAF AMD EFHK 270349Z 2703/2803 VRB02KT 9999 -RA BKN006 PROB30 TEMPO 2703/2705 2500 BR BKN002 BECMG 2705/2707 BKN010 BECMG 2707/2709 BKN015 TEMPO 2710/2720 SHRA SCT020CB BECMG 2800/2803 BKN008
Honningsvåg
08/26 1500/1184
ENHV 270350Z 03010KT 9999 FEW011 BKN140 06/04 Q1008
Hovden
L06-1600/3187
ENOV 270350Z 00000KT 9999 VCFG NSC 04/03 Q1003 RMK WIND RWY24 00000KT WIND 2090FT 11003KT
Hoybuktmoen
I23-550/250
R05-1500/740
ENKR 270350Z 03014KT 9999 BKN006 04/03 Q1003 RMK WIND 731FT 04025KT TAF ENKR 270200Z 2703/2712 05018KT 9999 -RA BKN020 TEMPO 2703/2712 BKN006
Ivalo
I22-550/200
R04-800/340
EFIV 270350Z AUTO 02011KT 9999 -RA SCT013 OVC032 05/02 Q1001
Joensuu
I28-550/200
R10-1000/306
EFJO 270350Z AUTO VRB01KT CAVOK 11/05 Q0994 TAF EFJO 262027Z 2621/2624 30003KT CAVOK
Jyvaskyla
I30-750/200
R12-1200/401
EFJY 270350Z AUTO 32008KT CAVOK 10/06 Q0995 TAF EFJY 270232Z 2703/2803 32003KT CAVOK TEMPO 2710/2720 SHRA FEW020CB
Kajaani
I07-550/200
R25-1100/335
EFKI 270350Z AUTO VRB02KT CAVOK 08/06 Q0994 TAF EFKI 270238Z 2703/2712 03002KT 9999 -RA BKN045 BECMG 2708/2710 26010KT PROB40 2710/2712 BKN010
Karup
I09R-550/200
I27L-550/200
EKKA 270350Z AUTO 24007KT 9999 NCD 07/06 Q1008 TAF EKKA 270216Z 2703/2803 28013KT 9999 FEW020 TEMPO 2705/2712 6000 SHRA BKN012 SCT020CB TEMPO 2712/2721 29018G30KT 6000 SHRA BKN012 SCT020CB TEMPO 2721/2724 29015G25KT 6000 SHRA BKN012 SCT020CB TEMPO 2800/2803 31015G25KT
Kastrup
I04L-550/214
I04R-550/200
I12-550/207
I22LR-550/200
I30-550/206
EKCH 270350Z AUTO 27013KT 9999 SCT021/// 10/07 Q1007 NOSIG TAF AMD EKCH 270217Z 2702/2724 23010KT 9999 BKN030 TEMPO 2702/2703 4000 SHRA BKN012 SCT020CB FM270300 28020KT 9999 BKN020 TEMPO 2703/2709 29025G35KT TEMPO 2709/2724 28025G35KT 4000 TSRA SCT020CB
Kemi
I18-750/200
R36-750/256
EFKE 270350Z AUTO 02006KT CAVOK 09/02 Q0996 TAF EFKE 270238Z 2703/2712 02008KT 9999 -RA BKN045 TEMPO 2705/2709 7000 RA BECMG 2705/2707 BKN008 PROB30 TEMPO 2707/2709 4000 SHRA BKN008 SCT050CB TEMPO 2709/2712 7000 -DZ SCT010 OVC015
Kittila
I34-550/214
L16-1500/477
EFKT 270350Z AUTO 01011KT 9999 -RA OVC032 06/04 Q0999
Kristiansand
I03-550/200
I21-550/200
ENCN 270350Z 26006KT CAVOK 07/04 Q1004 TAF ENCN 270200Z 2703/2712 26008KT 9999 FEW020TCU SCT040 TEMPO 2706/2712 29015G25KT TEMPO 2709/2712 SHRA SCT025CB BKN035
Kristiansund
I07-800/252
R25-1300/369
ENKB 270350Z 00000KT 9999 FEW013 SCT017 07/05 Q1003 RMK WIND 745FT 27003KT TAF AMD ENKB 270335Z 2703/2712 26008KT 9999 SCT015 TEMPO 2703/2710 BKN012 BECMG 2706/2709 32012KT
Kruunupyy
I19-550/200
R01-1000/250
EFKK 270350Z 33002KT 9999 BKN038 09/08 Q0997 TAF EFKK 270238Z 2703/2712 33004KT 9999 PRFG FEW001 TEMPO 2703/2705 0300 FG VV001 PROB30 2705/2707 BKN004
Kuopio
I33-550/200
R15-900/273
EFKU 270350Z AUTO 28005KT CAVOK 09/06 Q0994 TAF EFKU 270232Z 2703/2803 30004KT CAVOK PROB40 TEMPO 2711/2720 FEW035CB
Kuusamo
I12-550/200
R30-750/251
EFKS 270350Z AUTO 01007KT 340V050 9999 -SHRA OVC005 07/06 Q0993
Lappeenranta
I06-550/200
R24-900/264
EFLP 270350Z AUTO 35004KT CAVOK 10/06 Q0994
Leknes
R02-1500/616
R20-1300/339
ENLK 270350Z VRB02KT CAVOK 11/08 Q1001
Mariehamn
I21-550/200
R03-1300/279
EFMA 270350Z AUTO 20004KT 160V220 0300 R21/0375N FG VV001 06/06 Q0996 TAF EFMA 270232Z 2703/2712 21003KT 0300 FG VV001 BECMG 2703/2705 2500 BR BKN002 BECMG 2705/2706 CAVOK
Mehamn
L17-1500/528
R35-1500/935
ENMH 270250Z 07008KT 9999 SCT010 BKN100 05/03 Q1008
Mikkeli
I11-550/204
R29-1400/298
EFMI 270350Z AUTO VRB02KT CAVOK 10/08 Q0994
Moirana
L14&32-1500/1200
ENRA 270350Z AUTO 35003KT //// R31///// // FEW010/// OVC032/// 06/05 Q1001 TAF ENRA 261400Z 2615/2621 10009KT 9999 FEW040 BKN060
Orland
R15-750/271
I33-750/206
ENOL 270350Z 28007KT 9999 FEW008 SCT025 08/07 Q1003 TAF COR ENOL 2700/2724 28008KT 9999 FEW010 SCT030 BECMG 2708/2710 34012KT TEMPO 2709/2714 BKN014TCU BECMG 2714/2716 BKN014 TEMPO 2716/2724 4000 -RADZ BR BKN008
Oslo
I01L-750/200
I01R-550/200
I19LR-550/200
ENGM 270350Z VRB01KT CAVOK 04/03 Q1000 NOSIG TAF ENGM 2700/2724 34008KT 9999 FEW025TCU BKN040 PROB30 TEMPO 2711/2716 SHRA BKN025 FEW030CB TEMPO 2712/2724 35015G25KT
Roskilde
I11-550/200
I21-550/200
R03-1500/503
R29-1500/412
EKRK 270350Z AUTO 28014KT 9999 FEW024/// 09/06 Q1007 TAF EKRK 270202Z 2703/2712 27018KT 9999 BKN020 TEMPO 2703/2709 28020G30KT TEMPO 2709/2712 28020G30KT 4000 TSRA BKN012 SCT020CB
Rost
R02-1000/250
R20-1000/250
ENRS 270350Z AUTO 21006KT 9999 BKN064 08/07 Q1001
Rovaniemi
I21-550/200
R03-750/254
EFRO 270350Z AUTO 01007KT 340V040 9999 -RA OVC006 08/07 Q0996 TAF EFRO 270238Z 2703/2803 02012KT 9999 -RA BKN007 PROB30 2703/2704 7000 RA FEW050CB TEMPO 2704/2707 4000 SHRA BKN004 SCT050CB TEMPO 2707/2710 5000 -DZ SCT009 OVC014 TEMPO 2710/2712 5000 SHRA BKN015 SCT050CB BECMG 2712/2714 OVC014 TEMPO 2714/2720 7000 -DZ BKN020 TEMPO 2720/2803 5000 -DZRA BKN004
Rygge
30/12
ENRY 270350Z AUTO 34003KT 9999NDV FEW046/// SCT064/// 06/02 Q1001 TAF ENRY 2700/2724 31008KT CAVOK TEMPO 2712/2716 03010KT SHRA SCT030CB BKN040
Ryum
R04-1400/299
R22-1500/493
ENRM 270350Z VRB03KT 5000 RADZ FEW004 SCT007 BKN010 08/08 Q1002 TAF AMD ENRM 261944Z 2619/2622 20005KT 9999 SCT020 PROB30 TEMPO 2619/2622 26015KT 4000 SHRA BKN009CB
Röros
I31-1500/517
ENRO 270350Z AUTO 34007KT 300V360 9999NDV -DZ BKN014/// BKN018/// OVC027/// 04/01 Q1000 TAF ENRO 270200Z 2703/2712 34010KT 9999 FEW012 BKN025 TEMPO 2703/2706 BKN012
Savonlinna
I12-550/200
R30-1300/250
EFSA 270350Z AUTO VRB02KT CAVOK 10/06 Q0994
Seinajoki
I32-550/200
R14-800/250
EFSI 270350Z AUTO 12003KT 080V140 9999 BKN041 09/08 Q0996
Skagen
L08-1500/370
L26-1500/377
ENSK 270350Z VRB03KT CAVOK 08/05 Q1001
Skrydstrup
I10L-550/200
I28R-550/200
EKSP 270350Z 26008KT 9999 FEW020 08/05 Q1011 TAF EKSP 270216Z 2703/2803 28013KT 9999 FEW020 TEMPO 2706/2709 27015G25KT TEMPO 2709/2721 28018G32KT 6000 SHRA BKN012 SCT020CB TEMPO 2721/2724 28015G25KT 6000 SHRA BKN012 SCT020CB TEMPO 2800/2803 31015G25KT
Sonderborg
I32-550/200
R14-750/200
EKSB 270350Z AUTO 26007KT 9999 NCD 10/07 Q1011
Sorkjosen
14
32
ENSR 270350Z VRB02KT CAVOK 12/02 Q1004 RMK WIND RWY32 VRB01KT WIND 1118FT 13011KT
Stavanger
I11-1200/200
I18-750/200
I36-800/219
R29-1100/325
ENZV 270350Z 26010KT 9999 FEW020CB SCT029 08/04 Q1005 TAF ENZV 2700/2724 29015KT 9999 -SHRA FEW020TCU BKN035 TEMPO 2700/2716 SHRA BKN014CB PROB30 TEMPO 2700/2706 TS BECMG 2712/2715 33020G30KT
Stokka
L20-1500/717
R02-1500/407
ENST 270350Z 00000KT 9999 FEW012 BKN016 09/06 Q1002 RMK WIND 300FT 00000KT
Svalbard
I10-1500/450
L28-1600/431
ENSB 270350Z 26004KT CAVOK 05/02 Q1013 RMK WIND 1400FT 11013KT TAF ENSB 2700/2724 25006KT CAVOK TEMPO 2701/2704 13010KT
Tammerfors
I24-550/200
R06-750/251
EFTP 270350Z AUTO 06004KT 9999 FEW006 OVC044 08/07 Q0996 TAF EFTP 270232Z 2703/2803 09003KT CAVOK PROB30 2703/2706 BKN012 PROB40 TEMPO 2709/2720 SHRA FEW020CB BECMG 2801/2803 2500 BR BKN004
Torp
I18-550/200
I36-600/256
ENTO 270350Z 27004KT CAVOK 06/00 Q1001 TAF ENTO 2700/2724 29008KT CAVOK TEMPO 2712/2717 SHRA SCT030CB BKN040
Tromsö
I36-900/345
I18-650/294
ENTC 270350Z 10003KT 080V140 CAVOK 10/04 Q1003 RMK WIND 2600FT 15008KT TAF ENTC 2700/2724 05009KT CAVOK
Trondheim
I09-750/210
I27800/237
ENVA 270350Z 09003KT 9999 VCSH FEW020 BKN035 07/06 Q1003 RMK WIND 670FT 32004KT TAF ENVA 2700/2724 29008KT 9999 -SHRA FEW020TCU BKN040 TEMPO 2700/2712 SHRA BKN014TCU BECMG 2709/2712 29018KT TEMPO 2712/2724 4000 SHRA BKN009 SCT015CB
Uleåborg
I12-550/200
R30-750/267
EFOU 270350Z AUTO 34004KT CAVOK 10/05 Q0995 TAF EFOU 270238Z 2703/2803 33006KT 9999 -RA NSC TEMPO 2707/2710 7000 RA BECMG 2708/2710 OVC006 TEMPO 2710/2718 4000 -DZRA OVC003 PROB30 TEMPO 2716/2718 SHRA BKN003 SCT060CB BECMG 2720/2722 FEW005 BKN030
Utti
I25-550/200
R07-800/255
EFUT 270350Z 33006KT 9999 SCT008 BKN010 09/08 Q0995 TAF AMD EFUT 270326Z 2703/2712 33005KT 9999 FEW009 SCT011 TEMPO 2703/2706 BKN009 PROB40 TEMPO 2706/2709 FEW020TCU TEMPO 2709/2712 FEW035CB
Vadso
L07-1400/343
R25-1500/363
ENVD 270350Z 04021KT 9999 OVC062 06/01 Q1003 TAF ENVD 270200Z 2703/2712 04020KT 9999 -SHRA BKN045 TEMPO 2706/2712 BKN008
Vamdrup
R01-1500/431
R19-1400/387
EKVD 270350Z AUTO 27009KT //// ///////// 09/06 Q1010
Vardö
R15-1500/498
R33-1300/270
ENSS 270350Z AUTO 02015KT 7000 -DZ OVC008 04/03 Q1005 RMK WIND 0354FT VRB19G34KT
Vasa
I16-550/200
R34-800/255
EFVA 270350Z AUTO 08004KT 9999 OVC004 09/09 Q0996 TAF EFVA 270238Z 2703/2803 10003KT 9999 BKN002 PROB30 2703/2705 2000 BR BECMG 2705/2707 FEW020 TEMPO 2708/2712 FEW030CB BECMG 2711/2713 31010KT BECMG 2716/2718 25004KT BECMG 2721/2723 BKN004 TEMPO 2723/2803 4000 -DZRA FEW004 OVC010
Åbo
I26-550/200
R08-900/268
EFTU 270350Z AUTO 26005KT 0350 R26/0750 FG VV001 07/07 Q0996 TAF AMD EFTU 270401Z 2704/2803 27005KT 0250 FG VV001 BECMG 2704/2706 2500 BR BKN004 BECMG 2706/2707 CAVOK PROB40 TEMPO 2710/2720 SHRA FEW020CB
Ålborg
I08L-750/200
I26R-550/200
EKYT 270350Z AUTO 29012KT 260V320 9999 FEW041/// 09/06 Q1005 TAF EKYT 270222Z 2703/2803 28015KT 9999 SCT030 BKN040 TEMPO 2703/2706 6000 SHRA BKN012 SCT020CB TEMPO 2706/2721 28018G32KT 6000 SHRA BKN012 SCT020CB TEMPO 2721/2803 31015G25KT 6000 SHRA BKN012 SCT020CB
Ålesund
I24-800/217
R06-550/225
ENAL 270350Z AUTO VRB02KT 9999 NCD 05/05 Q1003 TAF ENAL 270200Z 2703/2712 VRB05KT 9999 FEW010 SCT060 PROB30 TEMPO 2703/2708 SHRA BKN014TCU BECMG 2706/2709 32012KT
Århus
I10R-550/200
I28L-550/200
EKAH 270350Z AUTO 26013KT 230V290 9999 NCD 08/06 Q1007 TAF EKAH 262301Z 2700/2724 22005KT 9999 BKN030 TEMPO 2700/2701 4000 SHRA BKN012 SCT020CB FM270100 27012KT 9999 BKN030 TEMPO 2701/2712 28015G25KT TEMPO 2712/2724 SHRA SCT020CB

EUROPE

AirportMETARTAF
Babimost
I24-550/212
R06-800/212
EPZG 270400Z 24012KT 9999 -RA SCT014 BKN049 14/12 Q1013 TAF EPZG 270258Z 2703/2712 26010KT 9999 OVC033 TEMPO 2704/2706 4000 RA BR BKN009 TEMPO 2706/2712 28015G25KT SHRA BKN012CB
Blankensee
I07-550/206
I25-800/237
EDHL 270350Z AUTO 26008KT 230V310 9999 // FEW026/// 11/08 Q1013 TAF AMD EDHL 261824Z 2618/2621 24008KT 9999 FEW015 BKN035 PROB40 TEMPO 2619/2621 4500 RADZ BKN009
Bydgoszcz
I26-550/212
R08-800/250
EPBY 270400Z 22006KT 9999 -RA BKN011 OVC014 11/10 Q1010 TAF EPBY 262330Z 2700/2724 25008KT 9999 BKN040 TEMPO 2700/2707 5000 -RA SCT005 BKN016 BECMG 2707/2709 27014KT TEMPO 2708/2718 28018G30KT TEMPO 2714/2724 6000 -SHRA BKN020CB PROB30 TEMPO 2715/2724 VRB16G30KT 3000 TSRA BKN014CB
Gdansk
I29-550/212
R11-800/250
EPGD 270400Z 24008KT 9999 BKN036 10/08 Q1008 TAF EPGD 262330Z 2700/2724 26013KT CAVOK TEMPO 2702/2705 4000 RA BR BKN012 BKN020 TEMPO 2705/2709 27018G30KT SHRA BKN010CB TEMPO 2709/2720 27023G40KT -SHRA BKN025CB PROB30 TEMPO 2713/2718 TSRA PROB40 TEMPO 2721/2724 VRB23G43KT 4000 TSRA SCT007 BKN012CB
Goleniow
I31-550/200
R13-800/250
EPSC 270400Z 25010KT 220V280 9999 SCT009 BKN013 13/11 Q1010 TAF EPSC 262330Z 2700/2724 23007KT 9999 BKN030 BECMG 2700/2703 BKN012 TEMPO 2700/2703 4000 -RA BR SCT004 BKN007 TEMPO 2703/2707 26015G27KT -SHRA BKN010CB BECMG 2705/2707 27015G33KT SCT040 TEMPO 2710/2724 -SHRA BKN025CB PROB40 TEMPO 2711/2724 VRB23G43KT 4000 TSRA SCT007 BKN012CB
Hamburg
I05-550/207
I15-550/200
I23-550/200
R33-550/250
EDDH 270350Z AUTO 27010KT 240V300 CAVOK 12/08 Q1014 BECMG 28015G25KT TAF EDDH 262300Z 2700/2806 27011KT 9999 SCT015 PROB40 TEMPO 2700/2704 24015G25KT BKN008 BECMG 2706/2708 27015G30KT PROB40 TEMPO 2709/2723 29020G40KT SHRA BKN025CB PROB30 TEMPO 2712/2721 4500 TSRA BKN013CB BECMG 2719/2721 28011KT
Holtenau
I08-550/246
I26-800/217
EDHK 270350Z AUTO 27009KT 9999 // NCD 09/07 Q1012 TAF EDHK 270300Z 2704/2712 26010G20KT 9999 SCT020 BECMG 2706/2708 27015G30KT PROB40 TEMPO 2709/2712 29020G35KT SHRA BKN015CB
Kaliningrad UMKK 270330Z 25005MPS 9999 SCT043 11/07 Q1007 R24/CLRD95 NOSIG RMK QFE754/1006 TAF UMKK 270159Z 2703/2803 24007G12MPS 6000 -SHRA FEW006 SCT016CB TEMPO 2706/2712 1500 SHRA BKN010CB PROB40 TEMPO 2706/2715 -TSRA BKN016CB BECMG 2708/2710 27013G21MPS BECMG 2716/2718 26008G15MPS
Kardla
R14-1300/250
R32-750/250
EEKA 270350Z 00000KT 9999 BKN009 10/08 Q0996 TAF EEKA 270300Z 2704/2710 VRB02KT 9999 BKN007 SCT030CB TEMPO 2704/2710 3000 SHRA BR BKN004 SCT020CB BECMG 2704/2706 27008KT
Katowice
I27-550/206
R09-800/250
EPKT 270400Z 22010KT CAVOK 14/09 Q1016 TAF EPKT 262330Z 2700/2724 24010KT CAVOK BECMG 2705/2707 25015G25KT TEMPO 2710/2716 27020G35KT 4000 SHRA BKN012 BKN020CB BECMG 2716/2718 28010KT
Kaunas
I08-600/265
I26-550/250
EYKA 270350Z 25013KT 210V290 9999 FEW043 10/06 Q1006 TAF EYKA 262300Z 2700/2724 25012KT 9000 BKN025 TEMPO 2710/2714 27015G25KT 3000 TSRA SCT005 BKN015CB TEMPO 2714/2721 27016G28KT 5000 SHRA SCT010 BKN015CB
Krakow
I25-550/214
R07-800/250
EPKK 270400Z 23005KT CAVOK 14/10 Q1017 TAF EPKK 270230Z 2703/2803 25010KT CAVOK BECMG 2706/2708 25015G25KT TEMPO 2708/2711 27020G35KT TEMPO 2711/2718 27020G35KT 4000 SHRA BKN020CB BECMG 2717/2720 22010KT
Kuressaare
I17-550/200
R35-1300/254
EEKE 270350Z 27011KT 240V300 9999 -RA BKN006 OVC010 10/09 Q0997 TAF EEKE 270300Z 2704/2710 26012KT 9999 BKN007 SCT025CB TEMPO 2704/2710 26015G25KT 3000 SHRA BKN005 BKN020CB
Liepaja
I24-800/238
V06-1500/403
EVLA 270350Z AUTO 25017KT CAVOK 10/07 Q1003 TAF EVLA 270204Z 2703/2803 24013KT 9999 BKN030 TEMPO 2703/2712 26015G28KT TEMPO 2712/2803 BKN015CB
Lublin
I25-550/250
R07-1000/250
EPLB 270400Z 25008KT CAVOK 16/11 Q1014 TAF EPLB 262330Z 2700/2724 27010KT CAVOK BECMG 2705/2708 -RA BKN012 BKN020 TEMPO 2706/2712 4000 RA BR BKN007 PROB40 TEMPO 2710/2713 SHRA BKN010CB TEMPO 2710/2716 30015G35KT BECMG 2713/2716 SCT030
Modlin
I08-550/200
R26-800/250
EPMO 270400Z 22004KT 180V240 9999 -RA BKN044 13/11 Q1011 TAF EPMO 262330Z 2700/2724 25010KT CAVOK BECMG 2701/2704 -RA BKN014 TEMPO 2703/2712 4000 RA BKN006 OVC014 PROB40 TEMPO 2709/2712 SHRA BKN010CB BECMG 2711/2714 BKN030 TEMPO 2711/2721 27015G28KT -SHRA BKN015CB PROB40 TEMPO 2711/2719 27020G38KT
Murmansk ULMM 270330Z 01006MPS 9999 OVC005 04/04 Q0999 R31/290160 NOSIG RMK OBST OBSC QFE742 TAF ULMM 270153Z 2703/2803 02005G10MPS 6000 -SHRA BKN011CB TEMPO 2703/2708 04007G14MPS BKN006 BKN011CB BECMG 2708/2709 05006G12MPS BKN016CB TEMPO 2709/2715 07008G16MPS BECMG 2715/2717 09003G08MPS TEMPO 2717/2801 BKN011CB
Olsztyn
I01-550/200
R19-800/250
EPSY 270400Z 21006KT 9999 BKN033 11/08 Q1010 TAF EPSY 270230Z 2703/2712 22010KT 9999 BKN040 PROB40 TEMPO 2703/2712 -RA BKN014
Palanga
I19-550/230
R01-800/253
EYPA 270350Z 26007KT 210V310 CAVOK 10/07 Q1005 TAF EYPA 262300Z 2700/2724 25008G18KT 9000 NSC TEMPO 2700/2706 SCT010 BECMG 2706/2708 OVC010 TEMPO 2708/2712 5000 SHRA BKN005 BKN015CB BECMG 2712/2713 BKN020 TEMPO 2713/2720 27018G28KT 5000 SHRA SCT010 BKN015CB BECMG 2720/2722 NSC
Poznan
I28-550/220
R10-750/209
EPPO 270400Z 26010KT 9999 -RA OVC016 13/12 Q1012 TAF EPPO 262330Z 2700/2724 27010KT CAVOK BECMG 2702/2705 4000 RA BR BKN007 BECMG 2706/2709 28015G30KT 9999 NSW BKN030 TEMPO 2706/2709 SHRA BKN012CB TEMPO 2714/2718 29020G40KT -SHRA BKN020CB
Prag
I06/I13/I24/I31
LKPR 270400Z 23012KT CAVOK 13/09 Q1018 NOSIG TAF LKPR 262300Z 2700/2806 24010KT CAVOK TEMPO 2705/2708 25014G28KT BECMG 2708/2709 28012KT 9999 BKN027 TEMPO 2710/2718 33016KT 8000 -RA BKN014 PROB40 TEMPO 2711/2716 5000 SHRA BKN007 BECMG 2718/2720 CAVOK
Pskov
R01-900/296
R19-750/312
ULOO 270330Z 24003MPS 9999 SCT008 BKN044 09/08 Q0998 R19/290050 NOSIG RMK QFE744 TAF AMD ULOO 270402Z 2704/2712 25003MPS 6000 BKN011 BKN016 TEMPO 2704/2707 -SHRA BKN007 BKN016CB BECMG 2707/2708 27005G11MPS TEMPO 2708/2712 4000 -TSRA BKN016CB
Riga
I18-550/200
I36-550/200
EVRA 270350Z 23007KT 200V260 CAVOK 09/07 Q1001 NOSIG TAF EVRA 270200Z 2703/2803 23009KT 9999 BKN030 TEMPO 2703/2709 BKN010 BKN020CB TEMPO 2706/2712 24015G26KT TEMPO 2715/2721 BKN020CB
Rzeszow
I27-550/200
R09-550/250
EPRZ 270400Z 25008KT CAVOK 16/10 Q1016 TAF EPRZ 262330Z 2700/2724 27010KT CAVOK BECMG 2706/2709 26015G25KT TEMPO 2712/2718 27020G35KT 4000 SHRA BKN012 BKN020CB BECMG 2717/2721 22010KT
Siauliai
I14L-550/210
I32R-550/210
V14R-1600/389
V32L-1600/534
EYSA 270350Z 25012KT 220V280 9999 FEW015 09/06 Q1004 NOSIG TAF EYSA 270206Z 2703/2712 25012KT 9000 SCT025 TEMPO 2703/2709 BKN025 TEMPO 2709/2712 BKN015CB
St Petersburg
I10
I28
ULLI 270330Z 24004MPS 9999 BKN015 10/09 Q0995 R28R/290050 NOSIG TAF ULLI 270154Z 2703/2803 25003MPS 8000 BKN016 TEMPO 2703/2706 BKN007 PROB40 TEMPO 2713/2720 -TSRA BKN016CB
Tallin
I08-550/200
I26-550/200
EETN 270350Z 26007KT 9999 OVC005 08/07 Q0996 NOSIG TAF EETN 262330Z 2700/2724 26008KT 2000 BR OVC003 TEMPO 2700/2704 0500 FG VV002 BECMG 2704/2706 6000 BKN007 BECMG 2706/2708 9999 NSW BKN020 SCT025CB TEMPO 2709/2716 2000 SHRA BR PROB40 TEMPO 2709/2715 BKN004
Tartu/Ulenurme
I26-550/236
R08-800/250
EETU 270350Z AUTO 24006KT 9999 BKN008/// BKN012/// OVC017/// 10/08 Q0997 TAF EETU 261600Z 2617/2623 26012KT 9999 SCT040 TEMPO 2617/2623 SCT010 SCT020CB PROB40 TEMPO 2617/2620 4000 SHRA
UMMG UMMG 270300Z 26003G06MPS CAVOK 08/05 Q1010 NOSIG TAF UMMG 261102Z 2612/2621 26005G10MPS 9999 BKN020 TEMPO 2612/2618 28009G14MPS 4000 -SHRA FEW009 BKN016CB
Ventspils
03
21
EVVA 270350Z AUTO 25013KT CAVOK 10/08 Q1000 TAF EVVA 261408Z 2615/2624 24010KT 9999 BKN030 TEMPO 2615/2624 BKN008 BKN015CB
Vilnius
I01-550/223
I19-600/266
EYVI 270350Z 26012KT 9999 SCT015 BKN044 09/06 Q1007 NOSIG TAF EYVI 262300Z 2700/2724 25013KT 9000 BKN025 TEMPO 2700/2703 SCT025 TEMPO 2703/2707 SCT005 BKN015CB TEMPO 2712/2715 27015G25KT 5000 TSRA SCT005 BKN015CB TEMPO 2715/2720 26016G28KT BKN015CB
Warszawa
I11-550/211
I33-550/200
R15-800/250
R29-800/250
EPWA 270400Z 23008KT 200V260 9999 -RA BKN042 15/10 Q1012 NOSIG TAF EPWA 270230Z 2703/2803 25008KT CAVOK BECMG 2703/2706 -RA BKN014 TEMPO 2706/2712 4000 RA BKN006 OVC014 PROB40 TEMPO 2709/2712 SHRA BKN010CB BECMG 2711/2714 BKN030 TEMPO 2711/2721 27015G28KT -SHRA BKN015CB PROB40 TEMPO 2711/2719 27020G38KT
Wroclaw
I29-550/200
R11-800/250
EPWR 270400Z 25007KT CAVOK 17/09 Q1014 TAF EPWR 270230Z 2703/2803 24008KT CAVOK BECMG 2706/2709 29015G25KT BKN014 TEMPO 2709/2714 29020G35KT 4000 SHRA BKN012CB BECMG 2714/2716 27015KT SCT030

OTHER

AirportMETARTAF
Rostock
I09-800/200
I27-800/200
ETNL 270320Z 27012KT 9999 FEW006 BKN130 13/10 Q1010 BLU TAF ETNL 262200Z 2623/2711 21012KT 6000 -RA BKN012 BKN030 BECMG 2701/2703 27015G25KT 9999 NSW SCT025 TEMPO 2706/2711 28020G35KT 4000 SHRA BKN012TCU BY ETGL